»·PEaware :: CFLAG KHQM-S23

CFLAG :: KHQM-S23

FLIGHT INFORMATION

Flight Status: Arrived
Operator: Unknown
More flights by this operator :: More flights under this callsign
Pilot: Vincent M. (370)
Aircraft: CIRRUS SR-22
(SR22)
More flights by this aircraft type
Origin: KHQM Bowerman
United States
Destination: S23 Ione Mun
United States
More flights between these airports :: More routes between these airports
Route:
File this flight plan on PilotEdge
Remarks: Washington Alphabet Challenge
Altitude:
(Current/Filed)
11,500ft
Speed:
(Current/Filed)
180kts
Departed: 27-Apr-20 10:28 AM
Arrived: 27-Apr-20 12:05 PM
Distance/Time
Traveled:
283nm/1:37
Distance/Time
To Go:
Arrived

Flight Plot

Page will automatically refresh every two minutes.

Flight plan parsing failed; only flown route is shown


Map Options




Map Legend


Flown Route
Filed Route
Departure Airport
Arrival Airport
Navaid (VOR, NDB)
Fix

Horizontal Profiles

Position Reports

Time Latitude Longitude Heading Altitude Ground
Speed
27-Apr-20 10:18 46.973457 -123.929797 169 21ft 0kts
27-Apr-20 10:19 46.973457 -123.929797 169 21ft 0kts
27-Apr-20 10:20 46.973431 -123.929790 170 21ft 0kts
27-Apr-20 10:21 46.973431 -123.929790 170 21ft 0kts
27-Apr-20 10:22 46.973431 -123.929790 170 21ft 0kts
27-Apr-20 10:23 46.973431 -123.929790 170 21ft 0kts
27-Apr-20 10:24 46.973431 -123.929790 170 21ft 0kts
27-Apr-20 10:25 46.973356 -123.929772 168 21ft 3kts
27-Apr-20 10:26 46.973141 -123.927353 130 21ft 0kts
27-Apr-20 10:27 46.970228 -123.944512 260 349ft 94kts
27-Apr-20 10:28 46.983511 -123.963782 35 918ft 129kts
27-Apr-20 10:29 46.992805 -123.907450 82 1011ft 156kts
27-Apr-20 10:30 47.002926 -123.840638 69 2024ft 170kts
27-Apr-20 10:31 47.020294 -123.776299 63 3247ft 170kts
27-Apr-20 10:32 47.039248 -123.712832 63 4451ft 171kts
27-Apr-20 10:33 47.058556 -123.648639 62 5663ft 172kts
27-Apr-20 10:34 47.077954 -123.584077 62 6873ft 174kts
27-Apr-20 10:35 47.097478 -123.518978 62 8086ft 175kts
27-Apr-20 10:36 47.117043 -123.453470 63 9300ft 176kts
27-Apr-20 10:37 47.136787 -123.387229 63 10521ft 177kts
27-Apr-20 10:38 47.156757 -123.320126 64 11493ft 190kts
27-Apr-20 10:39 47.178886 -123.245285 64 11499ft 205kts
27-Apr-20 10:40 47.201821 -123.167629 64 11499ft 207kts
27-Apr-20 10:41 47.224796 -123.089630 64 11499ft 208kts
27-Apr-20 10:42 47.247801 -123.011295 64 11499ft 208kts
27-Apr-20 10:43 47.270796 -122.932732 64 11500ft 209kts
27-Apr-20 10:44 47.293779 -122.853960 64 11500ft 209kts
27-Apr-20 10:45 47.316652 -122.775308 64 11500ft 209kts
27-Apr-20 10:46 47.339678 -122.695895 64 11501ft 211kts
27-Apr-20 10:47 47.362668 -122.616315 64 11501ft 212kts
27-Apr-20 10:48 47.385749 -122.536169 64 11501ft 212kts
27-Apr-20 10:49 47.408727 -122.456119 64 11502ft 212kts
27-Apr-20 10:50 47.431744 -122.375670 64 11502ft 212kts
27-Apr-20 10:51 47.454426 -122.296153 65 11498ft 212kts
27-Apr-20 10:52 47.477225 -122.215916 65 11498ft 211kts
27-Apr-20 10:53 47.499986 -122.135559 65 11499ft 211kts
27-Apr-20 10:54 47.522686 -122.055162 65 11499ft 211kts
27-Apr-20 10:55 47.545367 -121.974559 65 11500ft 212kts
27-Apr-20 10:56 47.567958 -121.894004 65 11500ft 212kts
27-Apr-20 10:57 47.590577 -121.813082 65 11501ft 213kts
27-Apr-20 10:58 47.613286 -121.731549 65 11501ft 214kts
27-Apr-20 10:59 47.635919 -121.650021 65 11501ft 214kts
27-Apr-20 11:00 47.658574 -121.568134 65 11502ft 215kts
27-Apr-20 11:01 47.681349 -121.485521 65 11502ft 216kts
27-Apr-20 11:02 47.704018 -121.403007 65 11502ft 216kts
27-Apr-20 11:03 47.726668 -121.320316 66 11498ft 216kts
27-Apr-20 11:04 47.749220 -121.237626 66 11499ft 215kts
27-Apr-20 11:05 47.771669 -121.155053 66 11499ft 215kts
27-Apr-20 11:06 47.794135 -121.072127 66 11499ft 215kts
27-Apr-20 11:07 47.816504 -120.989269 66 11500ft 215kts
27-Apr-20 11:08 47.838803 -120.906380 66 11500ft 215kts
27-Apr-20 11:09 47.861104 -120.823186 66 11501ft 216kts
27-Apr-20 11:10 47.883357 -120.739875 66 11501ft 216kts
27-Apr-20 11:11 47.905498 -120.656687 66 11501ft 216kts
27-Apr-20 11:12 47.927572 -120.573452 66 11502ft 216kts
27-Apr-20 11:13 47.949661 -120.489867 66 11502ft 216kts
27-Apr-20 11:14 47.971659 -120.406320 66 11502ft 216kts
27-Apr-20 11:15 47.993615 -120.322673 66 11499ft 216kts
27-Apr-20 11:16 48.015387 -120.239367 66 11499ft 215kts
27-Apr-20 11:17 48.037167 -120.155745 66 11499ft 215kts
27-Apr-20 11:18 48.058862 -120.072147 66 11500ft 215kts
27-Apr-20 11:19 48.080544 -119.988292 66 11500ft 216kts
27-Apr-20 11:20 48.102079 -119.904710 66 11500ft 216kts
27-Apr-20 11:21 48.123661 -119.820634 67 11500ft 216kts
27-Apr-20 11:22 48.145132 -119.736684 66 11500ft 216kts
27-Apr-20 11:23 48.166571 -119.652545 67 11501ft 216kts
27-Apr-20 11:24 48.187973 -119.568236 67 11503ft 216kts
27-Apr-20 11:25 48.209300 -119.483919 67 11515ft 216kts
27-Apr-20 11:26 48.230527 -119.399684 67 11530ft 216kts
27-Apr-20 11:28 48.251795 -119.315002 67 11535ft 217kts
27-Apr-20 11:29 48.273204 -119.229068 68 10871ft 223kts
27-Apr-20 11:30 48.294493 -119.143679 67 9359ft 215kts
27-Apr-20 11:31 48.315174 -119.060374 67 7853ft 211kts
27-Apr-20 11:32 48.335348 -118.979077 67 7500ft 207kts
27-Apr-20 11:33 48.355502 -118.897518 66 7500ft 207kts
27-Apr-20 11:34 48.372186 -118.834088 66 7500ft 197kts
27-Apr-20 11:35 48.392901 -118.761229 66 7499ft 185kts
27-Apr-20 11:36 48.413063 -118.690321 66 7499ft 183kts
27-Apr-20 11:37 48.433156 -118.619656 66 7500ft 183kts
27-Apr-20 11:38 48.453203 -118.549184 66 7499ft 183kts
27-Apr-20 11:39 48.473344 -118.478408 66 7500ft 183kts
27-Apr-20 11:40 48.476791 -118.403113 94 7500ft 183kts
27-Apr-20 11:41 48.472648 -118.327364 94 7500ft 183kts
27-Apr-20 11:42 48.468456 -118.250546 94 7500ft 183kts
27-Apr-20 11:42 48.464994 -118.186828 94 7499ft 183kts
27-Apr-20 11:44 48.460162 -118.097428 94 7499ft 183kts
27-Apr-20 11:45 48.456044 -118.020804 94 7500ft 183kts
27-Apr-20 11:46 48.451948 -117.944213 94 7499ft 183kts
27-Apr-20 11:46 48.448536 -117.880092 94 7500ft 183kts
27-Apr-20 11:47 48.442904 -117.803831 96 7500ft 183kts
27-Apr-20 11:49 48.436113 -117.714535 96 7500ft 183kts
27-Apr-20 11:49 48.431314 -117.651183 96 7500ft 183kts
27-Apr-20 11:50 48.425539 -117.574710 96 7500ft 183kts
27-Apr-20 11:51 48.422220 -117.497686 86 7207ft 192kts
27-Apr-20 11:52 48.431943 -117.422867 71 5698ft 177kts
27-Apr-20 11:53 48.450012 -117.354980 66 4192ft 172kts
27-Apr-20 11:54 48.470244 -117.291748 63 3099ft 148kts
27-Apr-20 11:55 48.500042 -117.267551 349 3099ft 130kts
27-Apr-20 11:56 48.529760 -117.296248 328 3099ft 127kts
27-Apr-20 11:57 48.555002 -117.333093 328 3099ft 126kts
27-Apr-20 11:58 48.586884 -117.350831 343 3107ft 104kts
27-Apr-20 11:59 48.613560 -117.365635 337 3100ft 103kts
27-Apr-20 12:00 48.640365 -117.381089 339 3099ft 103kts
27-Apr-20 12:01 48.666510 -117.397017 339 3004ft 92kts
27-Apr-20 12:02 48.691607 -117.407420 347 2439ft 94kts
27-Apr-20 12:03 48.711169 -117.414072 346 2110ft 45kts
27-Apr-20 12:04 48.713910 -117.413915 217 2110ft 1kts
27-Apr-20 12:05 48.713879 -117.414524 206 2110ft 0kts
27-Apr-20 12:06 48.713879 -117.414524 206 2110ft 0kts
27-Apr-20 12:07 48.713879 -117.414524 206 2110ft 0kts
27-Apr-20 12:08 48.713879 -117.414524 206 2110ft 0kts
27-Apr-20 12:09 48.713879 -117.414524 206 2110ft 0kts
27-Apr-20 12:10 48.713879 -117.414524 206 2110ft 0kts
27-Apr-20 12:11 48.713879 -117.414524 206 2110ft 0kts
27-Apr-20 12:12 48.713879 -117.414524 206 2110ft 0kts
27-Apr-20 12:13 48.713879 -117.414524 206 2110ft 0kts
27-Apr-20 12:14 48.713879 -117.414524 206 2110ft 0kts
27-Apr-20 12:15 48.713879 -117.414524 206 2110ft 0kts
27-Apr-20 12:16 48.713879 -117.414524 206 2110ft 0kts
27-Apr-20 12:17 48.713879 -117.414524 206 2110ft 0kts
27-Apr-20 12:18 48.713879 -117.414524 206 2110ft 0kts

Navigation Log

Ident Type
Flight plan parsing failed, navigation log unavailable